createdAt,value
2018-04-02T00:01:28.439Z,80.03
2018-04-02T00:03:56.090Z,74.50
2018-04-02T00:06:23.698Z,74.93
2018-04-02T00:08:51.396Z,77.03
2018-04-02T00:11:18.951Z,72.33
2018-04-02T00:13:46.609Z,83.37
2018-04-02T00:16:14.199Z,76.47
2018-04-02T00:18:41.969Z,93.17
2018-04-02T00:21:09.571Z,79.03
2018-04-02T00:23:37.298Z,93.03
2018-04-02T00:26:04.920Z,83.23
2018-04-02T00:28:32.633Z,83.00
2018-04-02T00:31:00.271Z,79.07
2018-04-02T00:33:27.987Z,85.60
2018-04-02T00:35:55.566Z,85.80
2018-04-02T00:38:23.203Z,89.23
2018-04-02T00:40:50.791Z,82.57
2018-04-02T00:43:18.521Z,85.83
2018-04-02T00:45:46.122Z,87.50
2018-04-02T00:48:13.718Z,87.33
2018-04-02T00:50:41.364Z,85.93
2018-04-02T00:53:09.000Z,83.20
2018-04-02T00:55:36.631Z,79.53
2018-04-02T00:58:04.243Z,79.80
2018-04-02T01:00:31.883Z,91.47
2018-04-02T01:02:59.488Z,83.47
2018-04-02T01:05:27.134Z,87.10
2018-04-02T01:07:54.740Z,86.43
2018-04-02T01:10:22.433Z,80.70
2018-04-02T01:12:50.067Z,80.37
2018-04-02T01:15:17.694Z,77.57
2018-04-02T01:17:45.306Z,78.93
2018-04-02T01:20:12.928Z,77.93
2018-04-02T01:22:40.531Z,81.90
2018-04-02T01:25:08.182Z,80.50
2018-04-02T01:27:35.765Z,86.27
2018-04-02T01:30:03.414Z,79.63
2018-04-02T01:32:31.001Z,83.33
2018-04-02T01:34:58.667Z,75.00
2018-04-02T01:37:26.311Z,76.47
2018-04-02T01:39:53.962Z,73.90
2018-04-02T01:42:21.593Z,79.30
2018-04-02T01:44:49.190Z,80.27
2018-04-02T01:47:16.809Z,74.07
2018-04-02T01:49:44.543Z,74.07
2018-04-02T01:52:12.174Z,67.73
2018-04-02T01:54:39.787Z,77.53
2018-04-02T01:57:07.423Z,79.03
2018-04-02T01:59:35.046Z,71.30
2018-04-02T02:02:02.725Z,80.10
2018-04-02T02:04:30.322Z,75.20
2018-04-02T02:06:57.941Z,82.80
2018-04-02T02:09:25.551Z,84.03
2018-04-02T02:11:53.182Z,76.77
2018-04-02T02:14:20.795Z,74.17
2018-04-02T02:16:48.480Z,74.20
2018-04-02T02:19:16.082Z,80.53
2018-04-02T02:21:43.727Z,75.57
2018-04-02T02:24:11.314Z,74.37
2018-04-02T02:26:38.906Z,86.20
2018-04-02T02:29:06.534Z,76.77
2018-04-02T02:31:34.228Z,68.73
2018-04-02T02:34:01.864Z,77.17
2018-04-02T02:36:29.491Z,76.53
2018-04-02T02:38:57.118Z,72.97
2018-04-02T02:41:24.722Z,69.73
2018-04-02T02:43:52.398Z,77.10
2018-04-02T02:46:19.990Z,79.50
2018-04-02T02:48:47.619Z,88.80
2018-04-02T02:51:15.210Z,81.83
2018-04-02T02:53:42.859Z,91.10
2018-04-02T02:56:10.437Z,93.10
2018-04-02T02:58:38.068Z,88.93
2018-04-02T03:01:05.685Z,96.17
2018-04-02T03:03:33.372Z,99.77
2018-04-02T03:06:00.973Z,99.37
2018-04-02T03:08:28.611Z,97.03
2018-04-02T03:10:56.272Z,95.67
2018-04-02T03:13:23.918Z,91.50
2018-04-02T03:15:51.515Z,107.53
2018-04-02T03:18:19.113Z,92.30
2018-04-02T03:20:46.754Z,90.57
2018-04-02T03:23:14.358Z,97.57
2018-04-02T03:25:41.991Z,98.37
2018-04-02T03:28:09.596Z,95.50
2018-04-02T03:30:37.243Z,102.10
2018-04-02T03:33:04.846Z,95.00
2018-04-02T03:35:32.508Z,100.33
2018-04-02T03:38:00.127Z,96.73
2018-04-02T03:40:27.767Z,100.90
2018-04-02T03:42:55.370Z,98.93
2018-04-02T03:45:23.044Z,107.33
2018-04-02T03:47:50.634Z,92.33
2018-04-02T03:50:18.281Z,98.90
2018-04-02T03:52:45.900Z,100.70
2018-04-02T03:55:13.532Z,98.37
2018-04-02T03:57:41.123Z,99.33
2018-04-02T04:00:08.762Z,95.03
2018-04-02T04:02:36.363Z,80.83
2018-04-02T04:05:04.029Z,105.23
2018-04-02T04:07:31.681Z,104.30
2018-04-02T04:09:59.314Z,112.90
2018-04-02T04:12:26.955Z,90.50
2018-04-02T04:14:54.573Z,90.77
2018-04-02T04:17:22.320Z,98.43
2018-04-02T04:19:49.927Z,92.60
2018-04-02T04:22:17.572Z,100.50
2018-04-02T04:24:45.168Z,101.53
2018-04-02T04:27:12.790Z,86.50
2018-04-02T04:29:40.394Z,82.30
2018-04-02T04:32:08.050Z,89.53
2018-04-02T04:34:35.638Z,91.77
2018-04-02T04:37:03.304Z,82.70
2018-04-02T04:39:30.903Z,78.67
2018-04-02T04:41:58.562Z,89.07
2018-04-02T04:44:26.218Z,80.40
2018-04-02T04:46:53.858Z,84.57
2018-04-02T04:49:21.471Z,73.93
2018-04-02T04:51:49.120Z,83.07
2018-04-02T04:54:16.715Z,80.47
2018-04-02T04:56:44.431Z,79.77
2018-04-02T04:59:12.063Z,71.50
2018-04-02T05:01:39.691Z,73.90
2018-04-02T05:04:07.344Z,77.83
2018-04-02T05:06:34.941Z,68.40
2018-04-02T05:09:02.595Z,81.27
2018-04-02T05:11:30.198Z,66.83
2018-04-02T05:13:57.835Z,65.20
2018-04-02T05:16:25.439Z,68.80
2018-04-02T05:18:53.066Z,72.97
2018-04-02T05:21:20.667Z,72.67
2018-04-02T05:23:48.397Z,65.63
2018-04-02T05:26:16.019Z,61.67
2018-04-02T05:28:43.658Z,72.60
2018-04-02T05:31:11.272Z,63.50
2018-04-02T05:33:38.899Z,61.83
2018-04-02T05:36:06.487Z,72.87
2018-04-02T05:38:34.134Z,60.07
2018-04-02T05:41:02.218Z,74.00
2018-04-02T05:43:29.906Z,58.77
2018-04-02T05:45:57.495Z,67.30
2018-04-02T05:48:25.094Z,62.00
2018-04-02T05:50:52.962Z,63.43
2018-04-02T05:53:20.607Z,65.83
2018-04-02T05:55:48.227Z,61.20
2018-04-02T05:58:15.860Z,62.10
2018-04-02T06:00:43.502Z,61.40
2018-04-02T06:03:11.095Z,63.47
2018-04-02T06:05:38.746Z,65.13
2018-04-02T06:08:06.353Z,71.20
2018-04-02T06:10:34.016Z,59.87
2018-04-02T06:13:01.580Z,54.83
2018-04-02T06:15:29.218Z,54.00
2018-04-02T06:17:56.833Z,67.67
2018-04-02T06:20:24.529Z,55.07
2018-04-02T06:22:52.188Z,59.30
2018-04-02T06:25:19.882Z,57.23
2018-04-02T06:27:47.490Z,57.87
2018-04-02T06:30:15.210Z,64.00
2018-04-02T06:32:42.823Z,65.90
2018-04-02T06:35:10.479Z,51.50
2018-04-02T06:37:38.171Z,52.47
2018-04-02T06:40:05.758Z,60.20
2018-04-02T06:42:33.395Z,56.30
2018-04-02T06:45:00.983Z,55.47
2018-04-02T06:47:28.779Z,60.30
2018-04-02T06:49:56.472Z,58.07
2018-04-02T06:52:24.114Z,57.67
2018-04-02T06:54:51.710Z,52.33
2018-04-02T06:57:19.334Z,53.17
2018-04-02T06:59:46.937Z,49.30
2018-04-02T07:02:14.714Z,52.70
2018-04-02T07:04:42.331Z,54.20
2018-04-02T07:07:09.962Z,50.33
2018-04-02T07:09:37.579Z,50.53
2018-04-02T07:12:05.278Z,47.07
2018-04-02T07:14:32.900Z,48.00
2018-04-02T07:17:00.527Z,44.37
2018-04-02T07:19:28.117Z,45.60
2018-04-02T07:21:55.766Z,48.80
2018-04-02T07:24:23.552Z,48.33
2018-04-02T07:26:51.140Z,48.57
2018-04-02T07:29:18.777Z,43.57
2018-04-02T07:31:46.377Z,38.63
2018-04-02T07:34:14.016Z,41.90
2018-04-02T07:36:41.627Z,41.27
2018-04-02T07:39:09.273Z,42.10
2018-04-02T07:41:36.869Z,39.37
2018-04-02T07:44:04.497Z,42.57
2018-04-02T07:46:32.117Z,34.47
2018-04-02T07:48:59.849Z,42.27
2018-04-02T07:51:27.556Z,38.70
2018-04-02T07:53:55.226Z,41.90
2018-04-02T07:56:22.833Z,43.43
2018-04-02T07:58:50.469Z,76.20
2018-04-02T08:01:18.184Z,35.23
2018-04-02T08:03:45.855Z,35.77
2018-04-02T08:06:13.489Z,34.13
2018-04-02T08:08:41.204Z,36.27
2018-04-02T08:11:08.752Z,37.10
2018-04-02T08:13:36.444Z,32.43
2018-04-02T08:16:04.074Z,32.27
2018-04-02T08:18:31.680Z,36.23
2018-04-02T08:20:59.315Z,32.17
2018-04-02T08:23:26.903Z,30.37
2018-04-02T08:25:54.576Z,32.37
2018-04-02T08:28:22.207Z,32.33
2018-04-02T08:30:49.815Z,27.87
2018-04-02T08:33:17.410Z,33.90
2018-04-02T08:35:45.063Z,30.53
2018-04-02T08:38:12.716Z,29.63
2018-04-02T08:40:40.498Z,32.43
2018-04-02T08:43:08.175Z,29.10
2018-04-02T08:45:35.776Z,34.13
2018-04-02T08:48:03.411Z,25.97
2018-04-02T08:50:31.004Z,38.87
2018-04-02T08:52:58.668Z,31.57
2018-04-02T08:55:26.265Z,25.37
2018-04-02T08:57:53.930Z,25.60
2018-04-02T09:00:21.514Z,26.90
2018-04-02T09:02:49.233Z,32.60
2018-04-02T09:05:16.876Z,26.03
2018-04-02T09:07:44.505Z,24.93
2018-04-02T09:10:12.114Z,24.10
2018-04-02T09:12:39.759Z,21.80
2018-04-02T09:15:07.358Z,23.97
2018-04-02T09:17:34.999Z,24.47
2018-04-02T09:20:02.594Z,21.97
2018-04-02T09:22:30.222Z,23.60
2018-04-02T09:24:57.850Z,25.10
2018-04-02T09:27:25.666Z,20.40
2018-04-02T09:29:53.293Z,19.10
2018-04-02T09:32:20.897Z,27.30
2018-04-02T09:34:48.569Z,17.60
2018-04-02T09:37:16.255Z,23.87
2018-04-02T09:39:43.902Z,13.90
2018-04-02T09:42:11.523Z,16.60
2018-04-02T09:44:39.169Z,18.80
2018-04-02T09:47:06.781Z,14.50
2018-04-02T09:49:34.430Z,15.03
2018-04-02T09:52:02.059Z,18.00
2018-04-02T09:54:29.695Z,14.33
2018-04-02T09:56:57.316Z,17.90
2018-04-02T09:59:25.122Z,15.40
2018-04-02T10:01:55.314Z,15.50
2018-04-02T10:04:28.346Z,16.53
2018-04-02T10:06:55.992Z,20.83
2018-04-02T10:09:23.659Z,20.70
2018-04-02T10:11:51.269Z,14.60
2018-04-02T10:14:18.934Z,15.90
2018-04-02T10:16:46.570Z,13.53
2018-04-02T10:19:14.238Z,16.43
2018-04-02T10:21:41.862Z,10.97
2018-04-02T10:24:09.554Z,13.80
2018-04-02T10:26:37.179Z,9.80
2018-04-02T10:29:04.791Z,11.10
2018-04-02T10:31:32.505Z,12.30
2018-04-02T10:34:00.122Z,8.30
2018-04-02T10:36:27.767Z,8.83
2018-04-02T10:38:55.365Z,10.43
2018-04-02T10:41:23.020Z,14.87
2018-04-02T10:43:50.689Z,11.00
2018-04-02T10:46:18.398Z,9.20
2018-04-02T10:48:46.042Z,11.13
2018-04-02T10:51:13.672Z,7.73
2018-04-02T10:53:41.293Z,11.60
2018-04-02T10:56:08.967Z,10.23
2018-04-02T10:58:36.691Z,12.00
2018-04-02T11:01:04.385Z,23.90
2018-04-02T11:03:31.996Z,18.47
2018-04-02T11:05:59.612Z,22.70
2018-04-02T11:08:27.262Z,20.30
2018-04-02T11:10:54.892Z,17.10
2018-04-02T11:13:22.554Z,8.00
2018-04-02T11:15:50.170Z,16.43
2018-04-02T11:18:17.818Z,8.60
2018-04-02T11:20:45.477Z,11.00
2018-04-02T11:23:13.147Z,13.50
2018-04-02T11:25:40.794Z,10.43
2018-04-02T11:28:08.458Z,12.17
2018-04-02T11:30:36.098Z,17.60
2018-04-02T11:33:03.990Z,16.17
2018-04-02T11:35:31.608Z,21.07
2018-04-02T11:37:59.287Z,14.63
2018-04-02T11:40:26.930Z,9.93
2018-04-02T11:42:54.637Z,11.50
2018-04-02T11:45:22.198Z,8.93
2018-04-02T11:47:49.876Z,6.47
2018-04-02T11:50:17.438Z,7.87
2018-04-02T11:52:45.111Z,11.27
2018-04-02T11:55:12.769Z,9.97
2018-04-02T11:57:40.381Z,9.90
2018-04-02T12:00:08.050Z,10.40
2018-04-02T12:02:35.652Z,8.03
2018-04-02T12:05:03.396Z,8.30
2018-04-02T12:07:31.005Z,6.63
2018-04-02T12:09:58.637Z,7.20
2018-04-02T12:12:26.273Z,7.60
2018-04-02T12:14:53.933Z,8.70
2018-04-02T12:17:21.542Z,7.70
2018-04-02T12:19:49.196Z,6.50
2018-04-02T12:22:16.826Z,5.80
2018-04-02T12:24:44.455Z,7.07
2018-04-02T12:27:12.068Z,7.50
2018-04-02T12:29:39.694Z,8.37
2018-04-02T12:32:07.310Z,7.17
2018-04-02T12:34:34.967Z,7.47
2018-04-02T12:37:02.585Z,6.83
2018-04-02T12:39:30.375Z,7.70
2018-04-02T12:41:57.968Z,6.60
2018-04-02T12:44:25.592Z,7.00
2018-04-02T12:46:53.257Z,6.47
2018-04-02T12:49:20.899Z,7.33
2018-04-02T12:51:48.534Z,6.70
2018-04-02T12:54:16.155Z,5.97
2018-04-02T12:56:43.875Z,8.13
2018-04-02T12:59:11.612Z,6.23
2018-04-02T13:01:39.200Z,7.47
2018-04-02T13:04:06.842Z,11.30
2018-04-02T13:06:34.469Z,8.67
2018-04-02T13:09:02.082Z,7.63
2018-04-02T13:11:29.748Z,11.23
2018-04-02T13:13:57.518Z,14.10
2018-04-02T13:16:25.164Z,8.07
2018-04-02T13:18:52.770Z,10.17
2018-04-02T13:21:20.498Z,6.83
2018-04-02T13:23:48.144Z,7.53
2018-04-02T13:26:15.848Z,11.70
2018-04-02T13:28:43.455Z,7.63
2018-04-02T13:31:11.110Z,8.93
2018-04-02T13:33:38.708Z,4.40
2018-04-02T13:36:06.515Z,9.97
2018-04-02T13:38:34.114Z,12.90
2018-04-02T13:41:01.806Z,6.10
2018-04-02T13:43:29.366Z,4.40
2018-04-02T13:45:57.010Z,4.67
2018-04-02T13:48:24.706Z,2.90
2018-04-02T13:50:52.393Z,4.20
2018-04-02T13:53:20.133Z,9.60
2018-04-02T13:55:47.794Z,2.87
2018-04-02T13:58:15.435Z,3.63
2018-04-02T14:00:43.030Z,5.40
2018-04-02T14:03:10.642Z,3.10
2018-04-02T14:05:38.239Z,4.50
2018-04-02T14:08:05.874Z,3.10
2018-04-02T14:10:33.460Z,2.73
2018-04-02T14:13:01.090Z,5.37
2018-04-02T14:15:28.704Z,4.20
2018-04-02T14:17:56.347Z,5.47
2018-04-02T14:20:24.003Z,2.30
2018-04-02T14:22:51.636Z,3.07
2018-04-02T14:25:19.251Z,5.10
2018-04-02T14:27:46.955Z,2.90
2018-04-02T14:30:14.579Z,2.80
2018-04-02T14:32:42.202Z,3.17
2018-04-02T14:35:09.819Z,5.40
2018-04-02T14:37:37.486Z,7.37
2018-04-02T14:40:05.074Z,4.13
2018-04-02T14:42:32.669Z,2.80
2018-04-02T14:45:00.301Z,3.90
2018-04-02T14:47:27.885Z,3.27
2018-04-02T14:49:55.554Z,4.53
2018-04-02T14:52:23.161Z,2.70
2018-04-02T14:54:50.877Z,3.20
2018-04-02T14:57:18.487Z,6.30
2018-04-02T14:59:46.124Z,2.90
2018-04-02T15:02:13.726Z,2.30
2018-04-02T15:04:41.358Z,2.53
2018-04-02T15:07:08.974Z,1.70
2018-04-02T15:09:36.624Z,3.63
2018-04-02T15:12:04.226Z,3.80
2018-04-02T15:14:31.864Z,2.47
2018-04-02T15:16:59.536Z,2.70
2018-04-02T15:19:27.214Z,3.17
2018-04-02T15:21:54.821Z,3.27
2018-04-02T15:24:22.451Z,1.70
2018-04-02T15:26:50.143Z,4.73
2018-04-02T15:29:17.844Z,1.63
2018-04-02T15:31:45.388Z,2.70
2018-04-02T15:34:13.083Z,2.40
2018-04-02T15:36:40.702Z,2.23
2018-04-02T15:39:08.367Z,4.40
2018-04-02T15:41:35.995Z,4.07
2018-04-02T15:44:03.605Z,1.70
2018-04-02T15:46:31.228Z,2.27
2018-04-02T15:49:00.638Z,2.40
2018-04-02T15:51:28.242Z,1.90
2018-04-02T15:53:55.846Z,2.17
2018-04-02T15:56:23.526Z,3.10
2018-04-02T15:58:51.098Z,4.80
2018-04-02T16:01:18.851Z,3.80
2018-04-02T16:03:46.458Z,2.73
2018-04-02T16:06:14.112Z,2.50
2018-04-02T16:08:41.816Z,4.93
2018-04-02T16:11:09.479Z,5.27
2018-04-02T16:13:37.121Z,2.40
2018-04-02T16:16:04.727Z,3.00
2018-04-02T16:18:32.332Z,2.07
2018-04-02T16:20:59.928Z,3.17
2018-04-02T16:23:27.550Z,3.17
2018-04-02T16:25:55.148Z,2.20
2018-04-02T16:28:22.855Z,2.70
2018-04-02T16:30:50.476Z,2.37
2018-04-02T16:33:18.176Z,2.57
2018-04-02T16:35:45.795Z,4.70
2018-04-02T16:38:13.427Z,3.70
2018-04-02T16:40:41.043Z,5.90
2018-04-02T16:43:08.677Z,2.37
2018-04-02T16:45:36.288Z,3.03
2018-04-02T16:48:03.934Z,2.93
2018-04-02T16:50:31.541Z,2.90
2018-04-02T16:52:59.218Z,5.57
2018-04-02T16:55:26.831Z,3.80
2018-04-02T16:57:54.514Z,3.20
2018-04-02T17:00:22.158Z,3.10
2018-04-02T17:02:49.790Z,2.43
2018-04-02T17:05:17.432Z,2.30
2018-04-02T17:07:45.025Z,2.57
2018-04-02T17:10:12.699Z,2.30
2018-04-02T17:12:40.311Z,2.20
2018-04-02T17:15:07.983Z,2.30
2018-04-02T17:17:35.633Z,4.50
2018-04-02T17:20:03.277Z,2.40
2018-04-02T17:22:30.900Z,2.57
2018-04-02T17:24:58.639Z,5.30
2018-04-02T17:27:26.239Z,2.80
2018-04-02T17:29:53.881Z,7.10
2018-04-02T17:32:21.558Z,3.30
2018-04-02T17:34:49.212Z,5.90
2018-04-02T17:37:16.848Z,3.80
2018-04-02T17:39:44.514Z,4.60
2018-04-02T17:42:12.125Z,5.30
2018-04-02T17:44:39.710Z,7.40
2018-04-02T17:47:07.372Z,3.73
2018-04-02T17:49:35.063Z,3.40
2018-04-02T17:52:02.686Z,5.90
2018-04-02T17:54:30.297Z,3.30
2018-04-02T17:56:57.946Z,2.23
2018-04-02T17:59:25.567Z,6.00
2018-04-02T18:01:53.243Z,5.43
2018-04-02T18:04:20.986Z,4.40
2018-04-02T18:06:48.617Z,1.83
2018-04-02T18:09:16.257Z,4.10
2018-04-02T18:11:43.926Z,4.77
2018-04-02T18:14:12.255Z,3.73
2018-04-02T18:16:39.893Z,3.10
2018-04-02T18:19:07.575Z,2.00
2018-04-02T18:21:35.254Z,2.70
2018-04-02T18:24:02.879Z,6.80
2018-04-02T18:26:30.495Z,2.57
2018-04-02T18:28:58.182Z,2.70
2018-04-02T18:31:25.983Z,3.10
2018-04-02T18:33:53.574Z,2.40
2018-04-02T18:36:21.196Z,4.43
2018-04-02T18:38:48.850Z,27.07
2018-04-02T18:41:16.455Z,5.77
2018-04-02T18:43:44.099Z,4.63
2018-04-02T18:46:11.720Z,4.80
2018-04-02T18:48:39.427Z,3.23
2018-04-02T18:51:07.063Z,6.50
2018-04-02T18:53:34.703Z,3.53
2018-04-02T18:56:02.318Z,3.20
2018-04-02T18:58:29.946Z,6.17
2018-04-02T19:00:57.554Z,3.80
2018-04-02T19:03:25.320Z,4.50
2018-04-02T19:05:52.927Z,3.13
2018-04-02T19:08:20.620Z,3.63
2018-04-02T19:10:48.226Z,4.27
2018-04-02T19:13:15.825Z,4.10
2018-04-02T19:15:43.571Z,40.90
2018-04-02T19:18:11.173Z,6.23
2018-04-02T19:20:38.846Z,4.40
2018-04-02T19:23:06.465Z,3.90
2018-04-02T19:25:34.093Z,3.70
2018-04-02T19:28:01.849Z,3.47
2018-04-02T19:30:29.491Z,3.97
2018-04-02T19:32:57.147Z,4.70
2018-04-02T19:35:24.805Z,5.53
2018-04-02T19:37:52.431Z,6.40
2018-04-02T19:40:20.080Z,6.53
2018-04-02T19:42:47.720Z,4.30
2018-04-02T19:45:15.362Z,7.70
2018-04-02T19:47:42.994Z,5.47
2018-04-02T19:50:10.646Z,6.67
2018-04-02T19:52:38.313Z,5.40
2018-04-02T19:55:05.962Z,4.73
2018-04-02T19:57:33.571Z,4.50
2018-04-02T20:00:01.278Z,8.00
2018-04-02T20:02:28.909Z,5.20
2018-04-02T20:04:56.587Z,4.00
2018-04-02T20:07:24.240Z,4.50
2018-04-02T20:09:52.002Z,4.17
2018-04-02T20:12:19.660Z,3.57
2018-04-02T20:14:47.303Z,4.60
2018-04-02T20:17:14.979Z,5.00
2018-04-02T20:19:42.576Z,3.70
2018-04-02T20:22:10.245Z,4.00
2018-04-02T20:24:37.878Z,4.60
2018-04-02T20:27:05.527Z,3.80
2018-04-02T20:29:33.138Z,4.10
2018-04-02T20:32:00.764Z,3.77
2018-04-02T20:34:28.419Z,3.30
2018-04-02T20:36:56.057Z,5.20
2018-04-02T20:39:23.734Z,4.97
2018-04-02T20:41:51.355Z,3.37
2018-04-02T20:44:18.959Z,4.10
2018-04-02T20:46:46.836Z,3.33
2018-04-02T20:49:14.436Z,5.77
2018-04-02T20:51:42.086Z,4.83
2018-04-02T20:54:09.743Z,3.53
2018-04-02T20:56:37.314Z,5.73
2018-04-02T20:59:04.944Z,9.70
2018-04-02T21:01:32.536Z,3.20
2018-04-02T21:04:00.204Z,4.77
2018-04-02T21:06:27.806Z,3.93
2018-04-02T21:08:55.510Z,4.13
2018-04-02T21:11:23.127Z,3.57
2018-04-02T21:13:50.762Z,2.57
2018-04-02T21:16:18.362Z,2.80
2018-04-02T21:18:46.007Z,3.93
2018-04-02T21:21:13.669Z,3.23
2018-04-02T21:23:41.290Z,2.70
2018-04-02T21:26:08.927Z,2.97
2018-04-02T21:28:36.574Z,4.90
2018-04-02T21:31:04.307Z,4.43
2018-04-02T21:33:31.950Z,2.60
2018-04-02T21:35:59.536Z,7.93
2018-04-02T21:38:27.196Z,6.40
2018-04-02T21:40:54.830Z,3.07
2018-04-02T21:43:22.598Z,3.40
2018-04-02T21:45:50.302Z,2.90
2018-04-02T21:48:17.918Z,4.60
2018-04-02T21:50:45.553Z,2.67
2018-04-02T21:53:13.169Z,3.70
2018-04-02T21:55:40.804Z,7.13
2018-04-02T21:58:08.584Z,2.67
2018-04-02T22:00:36.214Z,2.83
2018-04-02T22:03:03.912Z,2.50
2018-04-02T22:05:31.633Z,3.20
2018-04-02T22:08:10.058Z,4.37
2018-04-02T22:10:37.708Z,1.80
2018-04-02T22:13:05.347Z,4.07
2018-04-02T22:15:32.959Z,2.37
2018-04-02T22:18:00.559Z,7.83
2018-04-02T22:20:28.205Z,2.53
2018-04-02T22:22:55.842Z,3.73
2018-04-02T22:25:23.473Z,2.60
2018-04-02T22:27:51.096Z,3.03
2018-04-02T22:30:18.825Z,4.53
2018-04-02T22:32:46.410Z,4.13
2018-04-02T22:35:14.077Z,4.87
2018-04-02T22:37:41.662Z,4.20
2018-04-02T22:40:09.299Z,4.07
2018-04-02T22:42:37.175Z,4.73
2018-04-02T22:45:04.822Z,4.00
2018-04-02T22:47:32.426Z,5.83
2018-04-02T22:50:00.074Z,2.70
2018-04-02T22:52:27.701Z,3.67
2018-04-02T22:54:55.378Z,3.13
2018-04-02T22:57:23.012Z,3.37
2018-04-02T22:59:50.603Z,2.50
2018-04-02T23:02:18.237Z,2.70
2018-04-02T23:04:45.847Z,2.87
2018-04-02T23:07:13.557Z,2.43
2018-04-02T23:09:41.203Z,2.33
2018-04-02T23:12:08.858Z,4.33
2018-04-02T23:14:36.502Z,3.10
2018-04-02T23:17:04.139Z,5.83
2018-04-02T23:19:31.735Z,2.83
2018-04-02T23:21:59.375Z,2.93
2018-04-02T23:24:27.028Z,3.43
2018-04-02T23:26:54.644Z,3.33
2018-04-02T23:29:22.228Z,2.70
2018-04-02T23:31:49.878Z,4.73
2018-04-02T23:34:17.454Z,2.93
2018-04-02T23:36:45.069Z,4.10
2018-04-02T23:39:12.892Z,2.90
2018-04-02T23:41:40.482Z,4.77
2018-04-02T23:44:08.131Z,4.03
2018-04-02T23:46:35.711Z,3.23
2018-04-02T23:49:03.385Z,2.80
2018-04-02T23:51:31.019Z,5.00
2018-04-02T23:53:58.685Z,3.80
2018-04-02T23:56:26.274Z,6.73
2018-04-02T23:58:53.958Z,5.40
